Terminal Aerodrome Forecast
Issued by NWS

Home | Current Version | Previous Version | Text Only | Print | Product List | Glossary On
Versions: 1 2 3 4 5 6 7 8 9 10 11 12 13 14
000
FTUS44 KOUN 180625 AAA
TAFWWR
TAF AMD
KWWR 180625Z 1806/1906 30018G26KT P6SM SCT250
     FM181500 34025G34KT P6SM BKN100
     FM182200 34013KT P6SM SKC=

USA.gov is the U.S. government's official web portal to all federal, state and local government web resources and services.